createdAt,value
2023-01-10T00:00:32.638Z,97.23
2023-01-10T00:01:32.613Z,97.22
2023-01-10T00:02:32.696Z,97.22
2023-01-10T00:03:32.568Z,97.32
2023-01-10T00:04:32.663Z,97.34
2023-01-10T00:05:32.538Z,97.36
2023-01-10T00:06:32.559Z,97.36
2023-01-10T00:07:32.554Z,97.32
2023-01-10T00:08:32.511Z,97.26
2023-01-10T00:09:32.493Z,97.22
2023-01-10T00:10:32.522Z,97.22
2023-01-10T00:11:32.472Z,97.23
2023-01-10T00:12:32.473Z,97.36
2023-01-10T00:13:32.528Z,97.41
2023-01-10T00:14:32.452Z,97.36
2023-01-10T00:15:32.522Z,97.52
2023-01-10T00:16:32.404Z,97.61
2023-01-10T00:17:32.430Z,97.67
2023-01-10T00:18:32.383Z,97.76
2023-01-10T00:19:32.445Z,97.78
2023-01-10T00:20:32.386Z,97.75
2023-01-10T00:21:32.340Z,97.93
2023-01-10T00:22:32.318Z,97.99
2023-01-10T00:23:32.321Z,98.14
2023-01-10T00:24:32.302Z,98.31
2023-01-10T00:25:32.305Z,98.31
2023-01-10T00:26:32.268Z,98.37
2023-01-10T00:27:32.275Z,98.55
2023-01-10T00:28:32.246Z,98.68
2023-01-10T00:29:32.222Z,98.75
2023-01-10T00:30:32.220Z,98.67
2023-01-10T00:31:32.219Z,98.62
2023-01-10T00:32:32.224Z,98.52
2023-01-10T00:33:32.249Z,98.58
2023-01-10T00:34:32.195Z,98.57
2023-01-10T00:35:32.161Z,98.61
2023-01-10T00:36:32.140Z,98.54
2023-01-10T00:37:32.131Z,98.54
2023-01-10T00:38:32.132Z,98.51
2023-01-10T00:39:32.143Z,98.39
2023-01-10T00:40:32.084Z,98.34
2023-01-10T00:41:32.073Z,98.37
2023-01-10T00:42:32.086Z,98.34
2023-01-10T00:43:32.103Z,98.28
2023-01-10T00:44:32.038Z,98.15
2023-01-10T00:45:32.054Z,97.81
2023-01-10T00:46:32.110Z,97.35
2023-01-10T00:47:31.999Z,97.26
2023-01-10T00:48:32.029Z,97.21
2023-01-10T00:49:31.987Z,97.21
2023-01-10T00:50:31.933Z,97.15
2023-01-10T00:51:31.970Z,97.15
2023-01-10T00:52:31.947Z,97.15
2023-01-10T00:53:31.924Z,97.04
2023-01-10T00:54:31.924Z,96.74
2023-01-10T00:55:31.970Z,96.74
2023-01-10T00:56:31.857Z,96.58
2023-01-10T00:57:31.871Z,96.61
2023-01-10T00:58:31.883Z,96.53
2023-01-10T00:59:31.838Z,96.49
2023-01-10T01:00:31.821Z,96.48
2023-01-10T01:01:31.985Z,96.54
2023-01-10T01:02:31.817Z,96.45
2023-01-10T01:03:31.789Z,96.44
2023-01-10T01:04:31.768Z,96.48
2023-01-10T01:05:31.765Z,96.51
2023-01-10T01:06:31.768Z,96.50
2023-01-10T01:07:31.719Z,96.54
2023-01-10T01:08:31.721Z,96.48
2023-01-10T01:09:31.705Z,96.50
2023-01-10T01:10:31.712Z,96.57
2023-01-10T01:11:31.693Z,96.60
2023-01-10T01:12:31.690Z,96.65
2023-01-10T01:13:31.676Z,96.63
2023-01-10T01:14:31.632Z,96.55
2023-01-10T01:15:31.654Z,96.61
2023-01-10T01:16:31.614Z,96.55
2023-01-10T01:17:31.631Z,96.46
2023-01-10T01:18:31.577Z,96.54
2023-01-10T01:19:31.569Z,96.54
2023-01-10T01:20:31.572Z,96.61
2023-01-10T01:21:31.613Z,96.63
2023-01-10T01:22:31.535Z,96.68
2023-01-10T01:23:31.512Z,96.78
2023-01-10T01:24:31.560Z,96.60
2023-01-10T01:25:31.505Z,96.58
2023-01-10T01:26:31.505Z,96.60
2023-01-10T01:27:31.488Z,96.67
2023-01-10T01:28:31.526Z,96.79
2023-01-10T01:29:42.301Z,96.89
2023-01-10T01:30:31.458Z,96.89
2023-01-10T01:31:31.457Z,96.93
2023-01-10T01:32:31.405Z,96.98
2023-01-10T01:33:31.385Z,97.09
2023-01-10T01:34:31.370Z,97.10
2023-01-10T01:35:31.376Z,97.15
2023-01-10T01:36:31.354Z,97.06
2023-01-10T01:37:31.331Z,97.01
2023-01-10T01:38:31.362Z,97.03
2023-01-10T01:39:31.301Z,97.02
2023-01-10T01:40:31.301Z,96.95
2023-01-10T01:41:31.277Z,96.95
2023-01-10T01:42:31.291Z,96.91
2023-01-10T01:43:31.250Z,96.99
2023-01-10T01:44:31.260Z,97.00
2023-01-10T01:45:31.204Z,97.07
2023-01-10T01:46:31.253Z,97.15
2023-01-10T01:47:31.199Z,97.28
2023-01-10T01:48:31.220Z,97.35
2023-01-10T01:49:31.194Z,97.35
2023-01-10T01:50:31.167Z,97.46
2023-01-10T01:51:31.156Z,97.42
2023-01-10T01:52:31.136Z,97.26
2023-01-10T01:53:31.122Z,97.09
2023-01-10T01:54:31.152Z,97.09
2023-01-10T01:55:31.124Z,97.05
2023-01-10T01:56:31.067Z,97.01
2023-01-10T01:57:31.079Z,97.01
2023-01-10T01:58:31.095Z,97.07
2023-01-10T01:59:31.023Z,97.09
2023-01-10T02:00:31.074Z,97.13
2023-01-10T02:01:31.121Z,97.20
2023-01-10T02:02:31.084Z,97.19
2023-01-10T02:03:31.055Z,97.33
2023-01-10T02:04:30.999Z,97.40
2023-01-10T02:05:30.940Z,97.51
2023-01-10T02:06:30.966Z,97.49
2023-01-10T02:07:30.935Z,97.44
2023-01-10T02:08:30.909Z,97.38
2023-01-10T02:09:30.888Z,97.29
2023-01-10T02:10:30.909Z,97.32
2023-01-10T02:11:30.942Z,97.37
2023-01-10T02:12:30.877Z,97.39
2023-01-10T02:13:30.839Z,97.40
2023-01-10T02:14:30.817Z,97.45
2023-01-10T02:15:30.832Z,97.60
2023-01-10T02:16:30.856Z,97.72
2023-01-10T02:17:30.799Z,97.72
2023-01-10T02:18:30.781Z,97.79
2023-01-10T02:19:30.781Z,97.87
2023-01-10T02:20:30.753Z,98.00
2023-01-10T02:21:30.797Z,98.03
2023-01-10T02:22:30.734Z,97.99
2023-01-10T02:23:30.713Z,98.08
2023-01-10T02:24:30.747Z,98.20
2023-01-10T02:25:30.692Z,98.29
2023-01-10T02:26:30.696Z,98.36
2023-01-10T02:27:30.671Z,98.45
2023-01-10T02:28:30.644Z,98.73
2023-01-10T02:29:30.655Z,98.89
2023-01-10T02:30:30.643Z,99.14
2023-01-10T02:31:30.618Z,99.29
2023-01-10T02:32:42.233Z,99.38
2023-01-10T02:33:30.607Z,99.41
2023-01-10T02:34:30.593Z,99.38
2023-01-10T02:35:30.577Z,99.32
2023-01-10T02:36:30.566Z,99.25
2023-01-10T02:37:30.567Z,99.18
2023-01-10T02:38:30.525Z,99.11
2023-01-10T02:39:30.513Z,99.00
2023-01-10T02:40:30.530Z,98.98
2023-01-10T02:41:30.462Z,98.91
2023-01-10T02:42:30.507Z,98.85
2023-01-10T02:43:30.482Z,98.62
2023-01-10T02:44:30.428Z,98.48
2023-01-10T02:45:30.430Z,98.43
2023-01-10T02:46:30.500Z,98.30
2023-01-10T02:47:30.384Z,98.22
2023-01-10T02:48:30.400Z,98.21
2023-01-10T02:49:30.371Z,98.16
2023-01-10T02:50:30.392Z,98.22
2023-01-10T02:51:30.358Z,98.20
2023-01-10T02:52:30.357Z,98.23
2023-01-10T02:53:30.362Z,98.22
2023-01-10T02:54:30.294Z,98.23
2023-01-10T02:55:30.384Z,98.21
2023-01-10T02:56:30.307Z,98.23
2023-01-10T02:57:30.279Z,98.20
2023-01-10T02:58:30.296Z,98.27
2023-01-10T02:59:30.239Z,98.29
2023-01-10T03:00:30.273Z,98.32
2023-01-10T03:01:30.277Z,98.31
2023-01-10T03:02:30.229Z,98.24
2023-01-10T03:03:30.221Z,98.19
2023-01-10T03:04:30.239Z,98.19
2023-01-10T03:05:30.143Z,98.19
2023-01-10T03:06:30.173Z,98.23
2023-01-10T03:07:30.141Z,98.30
2023-01-10T03:08:30.123Z,98.34
2023-01-10T03:09:30.099Z,98.42
2023-01-10T03:10:30.125Z,98.50
2023-01-10T03:11:30.115Z,98.52
2023-01-10T03:12:30.052Z,98.54
2023-01-10T03:13:30.031Z,98.44
2023-01-10T03:14:30.071Z,98.36
2023-01-10T03:15:30.049Z,98.37
2023-01-10T03:16:30.023Z,98.40
2023-01-10T03:17:30.004Z,98.44
2023-01-10T03:18:30.043Z,98.50
2023-01-10T03:19:29.967Z,98.44
2023-01-10T03:20:29.969Z,98.47
2023-01-10T03:21:29.928Z,98.49
2023-01-10T03:22:29.937Z,98.50
2023-01-10T03:23:29.925Z,98.50
2023-01-10T03:24:29.916Z,98.45
2023-01-10T03:25:29.911Z,98.40
2023-01-10T03:26:29.889Z,98.40
2023-01-10T03:27:29.848Z,98.38
2023-01-10T03:28:29.890Z,98.42
2023-01-10T03:29:29.855Z,98.40
2023-01-10T03:30:29.836Z,98.30
2023-01-10T03:31:29.908Z,98.18
2023-01-10T03:32:29.835Z,98.12
2023-01-10T03:33:29.805Z,98.12
2023-01-10T03:34:29.800Z,98.16
2023-01-10T03:35:29.766Z,98.05
2023-01-10T03:36:29.747Z,98.01
2023-01-10T03:37:29.770Z,98.07
2023-01-10T03:38:29.714Z,98.06
2023-01-10T03:39:29.689Z,98.06
2023-01-10T03:40:29.710Z,98.06
2023-01-10T03:41:29.678Z,98.09
2023-01-10T03:42:29.652Z,98.16
2023-01-10T03:43:29.663Z,98.26
2023-01-10T03:44:29.670Z,98.61
2023-01-10T03:45:29.640Z,98.90
2023-01-10T03:46:29.659Z,99.20
2023-01-10T03:47:29.622Z,99.42
2023-01-10T03:48:29.636Z,99.70
2023-01-10T03:49:29.581Z,99.97
2023-01-10T03:50:29.592Z,100.00
2023-01-10T03:51:29.601Z,100.00
2023-01-10T03:52:29.550Z,100.00
2023-01-10T03:53:29.596Z,100.00
2023-01-10T03:54:29.530Z,100.00
2023-01-10T03:55:29.567Z,100.00
2023-01-10T03:56:29.582Z,100.00
2023-01-10T03:57:29.534Z,100.00
2023-01-10T03:58:29.512Z,100.00
2023-01-10T03:59:29.480Z,100.00
2023-01-10T04:00:29.531Z,100.00
2023-01-10T04:01:29.567Z,100.00
2023-01-10T04:02:29.387Z,100.00
2023-01-10T04:03:29.415Z,100.00
2023-01-10T04:04:29.398Z,100.00
2023-01-10T04:05:29.411Z,100.00
2023-01-10T04:06:29.454Z,100.00
2023-01-10T04:07:29.430Z,100.00
2023-01-10T04:08:29.383Z,100.00
2023-01-10T04:09:29.339Z,100.00
2023-01-10T04:10:29.303Z,100.00
2023-01-10T04:11:29.297Z,100.00
2023-01-10T04:12:29.268Z,100.00
2023-01-10T04:13:29.320Z,100.00
2023-01-10T04:14:29.278Z,100.00
2023-01-10T04:15:29.222Z,100.00
2023-01-10T04:16:29.243Z,100.00
2023-01-10T04:17:29.188Z,100.00
2023-01-10T04:18:29.176Z,100.00
2023-01-10T04:19:29.189Z,100.00
2023-01-10T04:20:29.188Z,100.00
2023-01-10T04:21:29.158Z,100.00
2023-01-10T04:22:29.139Z,100.00
2023-01-10T04:23:29.121Z,100.00
2023-01-10T04:24:29.158Z,100.00
2023-01-10T04:25:29.105Z,100.00
2023-01-10T04:26:29.080Z,100.00
2023-01-10T04:27:29.064Z,100.00
2023-01-10T04:28:29.075Z,100.00
2023-01-10T04:29:29.020Z,100.00
2023-01-10T04:30:29.007Z,100.00
2023-01-10T04:31:29.103Z,100.00
2023-01-10T04:32:28.997Z,100.00
2023-01-10T04:33:29.025Z,100.00
2023-01-10T04:34:28.975Z,100.00
2023-01-10T04:35:28.991Z,100.00
2023-01-10T04:36:28.923Z,100.00
2023-01-10T04:37:28.954Z,100.00
2023-01-10T04:38:28.910Z,100.00
2023-01-10T04:39:28.923Z,100.00
2023-01-10T04:40:28.917Z,100.00
2023-01-10T04:41:28.903Z,100.00
2023-01-10T04:42:28.851Z,100.00
2023-01-10T04:43:28.873Z,100.00
2023-01-10T04:44:28.869Z,100.00
2023-01-10T04:45:28.875Z,100.00
2023-01-10T04:46:28.804Z,100.00
2023-01-10T04:47:28.809Z,100.00
2023-01-10T04:48:28.808Z,100.00
2023-01-10T04:49:28.795Z,100.00
2023-01-10T04:50:28.779Z,100.00
2023-01-10T04:51:28.785Z,100.00
2023-01-10T04:52:28.742Z,100.00
2023-01-10T04:53:28.757Z,100.00
2023-01-10T04:54:28.744Z,100.00
2023-01-10T04:55:28.705Z,100.00
2023-01-10T04:56:28.692Z,100.00
2023-01-10T04:57:28.670Z,100.00
2023-01-10T04:58:28.640Z,100.00
2023-01-10T04:59:28.650Z,100.00
2023-01-10T05:00:28.622Z,100.00
2023-01-10T05:01:28.648Z,100.00
2023-01-10T05:02:28.751Z,100.00
2023-01-10T05:03:28.602Z,100.00
2023-01-10T05:04:28.567Z,100.00
2023-01-10T05:05:28.572Z,100.00
2023-01-10T05:06:28.538Z,100.00
2023-01-10T05:07:28.586Z,100.00
2023-01-10T05:08:28.518Z,100.00
2023-01-10T05:09:28.494Z,100.00
2023-01-10T05:10:28.532Z,100.00
2023-01-10T05:11:28.478Z,100.00
2023-01-10T05:12:28.492Z,100.00
2023-01-10T05:13:28.446Z,100.00
2023-01-10T05:14:28.446Z,100.00
2023-01-10T05:15:28.492Z,100.00
2023-01-10T05:16:28.500Z,100.00
2023-01-10T05:17:28.435Z,100.00
2023-01-10T05:18:28.460Z,100.00
2023-01-10T05:19:28.358Z,100.00
2023-01-10T05:20:28.422Z,100.00
2023-01-10T05:21:28.371Z,100.00
2023-01-10T05:22:28.371Z,100.00
2023-01-10T05:23:28.326Z,100.00
2023-01-10T05:24:28.290Z,100.00
2023-01-10T05:25:28.305Z,100.00
2023-01-10T05:26:28.310Z,100.00
2023-01-10T05:27:28.315Z,100.00
2023-01-10T05:28:28.274Z,100.00
2023-01-10T05:29:28.250Z,100.00
2023-01-10T05:30:28.271Z,100.00
2023-01-10T05:31:28.259Z,100.00
2023-01-10T05:32:28.212Z,100.00
2023-01-10T05:33:28.245Z,100.00
2023-01-10T05:34:28.205Z,100.00
2023-01-10T05:35:28.159Z,100.00
2023-01-10T05:36:28.179Z,100.00
2023-01-10T05:37:28.161Z,100.00
2023-01-10T05:38:28.103Z,100.00
2023-01-10T05:39:28.118Z,100.00
2023-01-10T05:40:28.093Z,100.00
2023-01-10T05:41:28.081Z,100.00
2023-01-10T05:42:28.098Z,100.00
2023-01-10T05:43:28.039Z,100.00
2023-01-10T05:44:28.031Z,100.00
2023-01-10T05:45:28.060Z,100.00
2023-01-10T05:46:28.023Z,100.00
2023-01-10T05:47:28.045Z,100.00
2023-01-10T05:48:27.995Z,100.00
2023-01-10T05:49:28.020Z,100.00
2023-01-10T05:50:27.955Z,100.00
2023-01-10T05:51:27.965Z,100.00
2023-01-10T05:52:27.953Z,100.00
2023-01-10T05:53:27.916Z,100.00
2023-01-10T05:54:27.900Z,100.00
2023-01-10T05:55:27.922Z,100.00
2023-01-10T05:56:27.920Z,100.00
2023-01-10T05:57:27.856Z,100.00
2023-01-10T05:58:27.856Z,100.00
2023-01-10T05:59:28.560Z,100.00
2023-01-10T06:00:27.846Z,100.00
2023-01-10T06:01:27.903Z,100.00
2023-01-10T06:02:27.932Z,100.00
2023-01-10T06:03:27.769Z,100.00
2023-01-10T06:04:27.788Z,100.00
2023-01-10T06:05:27.782Z,100.00
2023-01-10T06:06:27.760Z,100.00
2023-01-10T06:07:27.749Z,100.00
2023-01-10T06:08:27.710Z,100.00
2023-01-10T06:09:27.745Z,100.00
2023-01-10T06:10:27.748Z,100.00
2023-01-10T06:11:27.724Z,100.00
2023-01-10T06:12:27.676Z,100.00
2023-01-10T06:13:27.661Z,100.00
2023-01-10T06:14:27.622Z,100.00
2023-01-10T06:15:27.653Z,100.00
2023-01-10T06:16:27.619Z,100.00
2023-01-10T06:17:27.627Z,100.00
2023-01-10T06:18:27.627Z,100.00
2023-01-10T06:19:27.587Z,100.00
2023-01-10T06:20:27.587Z,100.00
2023-01-10T06:21:27.575Z,100.00
2023-01-10T06:22:27.536Z,100.00
2023-01-10T06:23:27.536Z,100.00
2023-01-10T06:24:27.507Z,100.00
2023-01-10T06:25:27.520Z,100.00
2023-01-10T06:26:27.509Z,100.00
2023-01-10T06:27:27.494Z,100.00
2023-01-10T06:28:27.448Z,100.00
2023-01-10T06:29:27.498Z,100.00
2023-01-10T06:30:27.446Z,100.00
2023-01-10T06:31:27.489Z,100.00
2023-01-10T06:32:27.436Z,100.00
2023-01-10T06:33:27.414Z,100.00
2023-01-10T06:34:27.386Z,100.00
2023-01-10T06:35:27.397Z,100.00
2023-01-10T06:36:27.366Z,100.00
2023-01-10T06:37:27.323Z,100.00
2023-01-10T06:38:27.301Z,100.00
2023-01-10T06:39:27.345Z,100.00
2023-01-10T06:40:27.294Z,100.00
2023-01-10T06:41:27.284Z,100.00
2023-01-10T06:42:27.272Z,100.00
2023-01-10T06:43:27.280Z,100.00
2023-01-10T06:44:27.239Z,100.00
2023-01-10T06:45:27.223Z,100.00
2023-01-10T06:46:27.215Z,100.00
2023-01-10T06:47:27.240Z,100.00
2023-01-10T06:48:27.167Z,100.00
2023-01-10T06:49:27.193Z,100.00
2023-01-10T06:50:27.153Z,100.00
2023-01-10T06:51:27.196Z,100.00
2023-01-10T06:52:27.167Z,100.00
2023-01-10T06:53:27.146Z,100.00
2023-01-10T06:54:27.126Z,100.00
2023-01-10T06:55:27.105Z,100.00
2023-01-10T06:56:27.087Z,100.00
2023-01-10T06:57:27.099Z,100.00
2023-01-10T06:58:27.059Z,100.00
2023-01-10T06:59:27.069Z,100.00
2023-01-10T07:00:27.028Z,100.00
2023-01-10T07:01:27.154Z,100.00
2023-01-10T07:02:27.055Z,100.00
2023-01-10T07:03:27.091Z,100.00
2023-01-10T07:04:26.992Z,100.00
2023-01-10T07:05:26.956Z,100.00
2023-01-10T07:06:26.950Z,100.00
2023-01-10T07:07:26.997Z,100.00
2023-01-10T07:08:26.904Z,100.00
2023-01-10T07:09:26.933Z,100.00
2023-01-10T07:10:26.885Z,100.00
2023-01-10T07:11:26.899Z,100.00
2023-01-10T07:12:26.904Z,100.00
2023-01-10T07:13:26.890Z,100.00
2023-01-10T07:14:26.873Z,100.00
2023-01-10T07:15:26.860Z,100.00
2023-01-10T07:16:26.826Z,100.00
2023-01-10T07:17:26.803Z,100.00
2023-01-10T07:18:26.784Z,100.00
2023-01-10T07:19:26.811Z,100.00
2023-01-10T07:20:26.859Z,100.00
2023-01-10T07:21:26.762Z,100.00
2023-01-10T07:22:26.721Z,100.00
2023-01-10T07:23:26.805Z,100.00
2023-01-10T07:24:26.714Z,100.00
2023-01-10T07:25:26.733Z,100.00
2023-01-10T07:26:26.664Z,100.00
2023-01-10T07:27:26.664Z,100.00
2023-01-10T07:28:26.649Z,100.00
2023-01-10T07:29:26.662Z,100.00
2023-01-10T07:30:26.665Z,100.00
2023-01-10T07:31:26.722Z,100.00
2023-01-10T07:32:26.599Z,100.00
2023-01-10T07:33:26.600Z,100.00
2023-01-10T07:34:26.576Z,100.00
2023-01-10T07:35:26.569Z,100.00
2023-01-10T07:36:26.596Z,100.00
2023-01-10T07:37:26.568Z,100.00
2023-01-10T07:38:26.548Z,100.00
2023-01-10T07:39:26.501Z,100.00
2023-01-10T07:40:26.541Z,100.00
2023-01-10T07:41:26.507Z,100.00
2023-01-10T07:42:26.482Z,100.00
2023-01-10T07:43:26.492Z,100.00
2023-01-10T07:44:26.463Z,100.00
2023-01-10T07:45:26.439Z,100.00
2023-01-10T07:46:26.439Z,100.00
2023-01-10T07:47:26.523Z,100.00
2023-01-10T07:48:26.425Z,100.00
2023-01-10T07:49:26.420Z,100.00
2023-01-10T07:50:26.500Z,100.00
2023-01-10T07:51:26.346Z,100.00
2023-01-10T07:52:26.349Z,100.00
2023-01-10T07:53:26.353Z,100.00
2023-01-10T07:54:26.330Z,100.00
2023-01-10T07:55:26.303Z,100.00
2023-01-10T07:56:26.320Z,100.00
2023-01-10T07:57:26.282Z,100.00
2023-01-10T07:58:26.295Z,100.00
2023-01-10T07:59:26.253Z,100.00
2023-01-10T08:00:26.295Z,100.00
2023-01-10T08:01:26.363Z,100.00
2023-01-10T08:02:26.330Z,100.00
2023-01-10T08:03:26.353Z,100.00
2023-01-10T08:04:26.165Z,100.00
2023-01-10T08:05:26.168Z,100.00
2023-01-10T08:06:26.147Z,100.00
2023-01-10T08:07:26.140Z,100.00
2023-01-10T08:08:26.150Z,100.00
2023-01-10T08:09:26.148Z,100.00
2023-01-10T08:10:26.176Z,100.00
2023-01-10T08:11:26.125Z,100.00
2023-01-10T08:12:26.091Z,100.00
2023-01-10T08:13:26.108Z,100.00
2023-01-10T08:14:26.231Z,100.00
2023-01-10T08:15:26.127Z,100.00
2023-01-10T08:16:26.150Z,100.00
2023-01-10T08:17:26.149Z,100.00
2023-01-10T08:18:26.115Z,100.00
2023-01-10T08:19:26.047Z,100.00
2023-01-10T08:20:26.006Z,100.00
2023-01-10T08:21:26.092Z,100.00
2023-01-10T08:22:26.027Z,100.00
2023-01-10T08:23:26.050Z,100.00
2023-01-10T08:24:26.056Z,100.00
2023-01-10T08:25:26.005Z,100.00
2023-01-10T08:26:25.877Z,100.00
2023-01-10T08:27:25.897Z,99.90
2023-01-10T08:28:25.885Z,99.71
2023-01-10T08:29:25.851Z,99.66
2023-01-10T08:30:25.842Z,99.60
2023-01-10T08:31:26.001Z,99.55
2023-01-10T08:32:25.823Z,99.55
2023-01-10T08:33:25.774Z,99.57
2023-01-10T08:34:25.827Z,99.53
2023-01-10T08:35:25.758Z,99.58
2023-01-10T08:36:25.755Z,99.61
2023-01-10T08:37:25.764Z,99.53
2023-01-10T08:38:25.735Z,99.48
2023-01-10T08:39:25.704Z,99.46
2023-01-10T08:40:25.705Z,99.41
2023-01-10T08:41:25.678Z,99.23
2023-01-10T08:42:25.680Z,99.16
2023-01-10T08:43:25.692Z,99.18
2023-01-10T08:44:25.683Z,99.25
2023-01-10T08:45:25.653Z,98.95
2023-01-10T08:46:25.642Z,98.98
2023-01-10T08:47:25.616Z,98.84
2023-01-10T08:48:25.593Z,98.81
2023-01-10T08:49:25.603Z,98.79
2023-01-10T08:50:25.553Z,98.74
2023-01-10T08:51:25.584Z,98.70
2023-01-10T08:52:25.541Z,98.62
2023-01-10T08:53:25.566Z,98.43
2023-01-10T08:54:25.516Z,98.26
2023-01-10T08:55:25.558Z,98.23
2023-01-10T08:56:25.514Z,97.98
2023-01-10T08:57:25.519Z,97.96
2023-01-10T08:58:25.465Z,97.68
2023-01-10T08:59:25.454Z,97.47
2023-01-10T09:00:25.465Z,97.34
2023-01-10T09:01:25.547Z,96.92
2023-01-10T09:02:25.414Z,96.68
2023-01-10T09:03:25.439Z,96.80
2023-01-10T09:04:25.420Z,96.80
2023-01-10T09:05:27.930Z,96.66
2023-01-10T09:06:25.377Z,97.03
2023-01-10T09:07:25.371Z,96.10
2023-01-10T09:08:25.342Z,95.61
2023-01-10T09:09:25.337Z,94.79
2023-01-10T09:10:25.316Z,94.06
2023-01-10T09:11:25.574Z,92.58
2023-01-10T09:12:25.346Z,92.01
2023-01-10T09:13:25.278Z,92.57
2023-01-10T09:14:25.249Z,91.84
2023-01-10T09:15:25.223Z,92.06
2023-01-10T09:16:25.272Z,90.46
2023-01-10T09:17:25.233Z,90.01
2023-01-10T09:18:25.211Z,90.11
2023-01-10T09:19:25.209Z,91.13
2023-01-10T09:20:25.158Z,92.56
2023-01-10T09:21:25.168Z,91.48
2023-01-10T09:22:25.148Z,89.70
2023-01-10T09:23:25.141Z,90.76
2023-01-10T09:24:25.129Z,91.79
2023-01-10T09:25:25.191Z,91.21
2023-01-10T09:26:25.145Z,89.38
2023-01-10T09:27:25.101Z,88.11
2023-01-10T09:28:25.142Z,87.10
2023-01-10T09:29:25.071Z,87.17
2023-01-10T09:30:25.078Z,86.60
2023-01-10T09:31:25.090Z,85.04
2023-01-10T09:32:25.029Z,84.99
2023-01-10T09:33:26.522Z,84.79
2023-01-10T09:34:24.999Z,86.23
2023-01-10T09:35:24.972Z,88.03
2023-01-10T09:36:25.009Z,89.71
2023-01-10T09:37:24.944Z,90.66
2023-01-10T09:38:24.945Z,91.37
2023-01-10T09:39:25.199Z,90.03
2023-01-10T09:40:24.951Z,88.26
2023-01-10T09:41:25.058Z,88.59
2023-01-10T09:42:24.972Z,90.06
2023-01-10T09:43:24.888Z,90.87
2023-01-10T09:44:24.879Z,91.23
2023-01-10T09:45:24.924Z,91.89
2023-01-10T09:46:24.839Z,92.40
2023-01-10T09:47:24.825Z,92.97
2023-01-10T09:48:24.808Z,93.52
2023-01-10T09:49:24.779Z,93.60
2023-01-10T09:50:24.753Z,93.89
2023-01-10T09:51:24.750Z,94.20
2023-01-10T09:52:24.765Z,94.25
2023-01-10T09:53:24.730Z,94.36
2023-01-10T09:54:24.722Z,94.46
2023-01-10T09:55:24.730Z,94.36
2023-01-10T09:56:24.689Z,94.63
2023-01-10T09:57:24.669Z,94.83
2023-01-10T09:58:24.666Z,96.15
2023-01-10T09:59:24.663Z,96.70
2023-01-10T10:00:24.622Z,97.19
2023-01-10T10:01:24.608Z,97.77
2023-01-10T10:02:24.618Z,98.33
2023-01-10T10:03:24.641Z,98.16
2023-01-10T10:04:24.644Z,98.30
2023-01-10T10:05:24.638Z,98.77
2023-01-10T10:06:24.536Z,98.75
2023-01-10T10:07:24.519Z,99.00
2023-01-10T10:08:24.549Z,99.22
2023-01-10T10:09:24.543Z,99.35
2023-01-10T10:10:24.543Z,99.45
2023-01-10T10:11:24.528Z,99.34
2023-01-10T10:12:24.457Z,99.09
2023-01-10T10:13:27.453Z,99.18
2023-01-10T10:14:24.498Z,98.90
2023-01-10T10:15:24.446Z,98.81
2023-01-10T10:16:24.467Z,99.07
2023-01-10T10:17:24.416Z,99.15
2023-01-10T10:18:24.427Z,98.96
2023-01-10T10:19:24.376Z,98.71
2023-01-10T10:20:24.361Z,98.59
2023-01-10T10:21:24.390Z,98.38
2023-01-10T10:22:24.376Z,98.55
2023-01-10T10:23:24.365Z,98.41
2023-01-10T10:24:24.309Z,98.15
2023-01-10T10:25:24.311Z,97.89
2023-01-10T10:26:24.325Z,98.26
2023-01-10T10:27:24.296Z,97.74
2023-01-10T10:28:24.264Z,97.59
2023-01-10T10:29:24.305Z,97.37
2023-01-10T10:30:24.297Z,97.02
2023-01-10T10:31:24.291Z,96.67
2023-01-10T10:32:24.204Z,97.01
2023-01-10T10:33:24.204Z,97.07
2023-01-10T10:34:24.218Z,96.82
2023-01-10T10:35:24.168Z,96.10
2023-01-10T10:36:24.144Z,96.32
2023-01-10T10:37:24.139Z,96.40
2023-01-10T10:38:24.140Z,96.43
2023-01-10T10:39:24.102Z,96.61
2023-01-10T10:40:24.106Z,95.84
2023-01-10T10:41:24.154Z,95.81
2023-01-10T10:42:24.085Z,95.94
2023-01-10T10:43:24.081Z,95.43
2023-01-10T10:44:24.054Z,95.70
2023-01-10T10:45:25.432Z,95.38
2023-01-10T10:46:24.068Z,95.62
2023-01-10T10:47:24.059Z,95.53
2023-01-10T10:48:23.993Z,95.74
2023-01-10T10:49:23.977Z,95.78
2023-01-10T10:50:23.959Z,95.65
2023-01-10T10:51:23.950Z,95.74
2023-01-10T10:52:23.942Z,95.68
2023-01-10T10:53:23.941Z,95.46
2023-01-10T10:54:23.896Z,95.56
2023-01-10T10:55:23.893Z,95.61
2023-01-10T10:56:23.885Z,95.64
2023-01-10T10:57:23.914Z,95.93
2023-01-10T10:58:23.867Z,95.90
2023-01-10T10:59:23.841Z,95.61
2023-01-10T11:00:23.826Z,95.65
2023-01-10T11:01:26.388Z,94.57
2023-01-10T11:02:23.831Z,94.67
2023-01-10T11:03:23.792Z,94.28
2023-01-10T11:04:23.832Z,93.91
2023-01-10T11:05:23.765Z,93.50
2023-01-10T11:06:23.757Z,92.95
2023-01-10T11:07:23.722Z,92.96
2023-01-10T11:08:23.736Z,92.92
2023-01-10T11:09:23.710Z,93.07
2023-01-10T11:10:23.728Z,93.44
2023-01-10T11:11:23.705Z,93.57
2023-01-10T11:12:23.665Z,92.87
2023-01-10T11:13:23.636Z,93.03
2023-01-10T11:14:23.668Z,93.12
2023-01-10T11:15:23.649Z,92.93
2023-01-10T11:16:23.648Z,92.91
2023-01-10T11:17:23.644Z,92.54
2023-01-10T11:18:23.601Z,92.30
2023-01-10T11:19:23.581Z,92.64
2023-01-10T11:20:23.575Z,92.30
2023-01-10T11:21:25.288Z,92.22
2023-01-10T11:22:23.533Z,91.80
2023-01-10T11:23:23.531Z,92.19
2023-01-10T11:24:23.548Z,91.55
2023-01-10T11:25:23.501Z,91.04
2023-01-10T11:26:23.492Z,90.61
2023-01-10T11:27:23.486Z,90.07
2023-01-10T11:28:23.512Z,90.86
2023-01-10T11:29:23.457Z,90.86
2023-01-10T11:30:23.453Z,90.75
2023-01-10T11:31:23.481Z,89.48
2023-01-10T11:32:23.416Z,90.10
2023-01-10T11:33:23.406Z,89.46
2023-01-10T11:34:23.402Z,89.16
2023-01-10T11:35:23.349Z,88.25
2023-01-10T11:36:23.348Z,87.87
2023-01-10T11:37:23.324Z,87.96
2023-01-10T11:38:23.326Z,87.70
2023-01-10T11:39:23.311Z,88.33
2023-01-10T11:40:23.275Z,89.08
2023-01-10T11:41:23.285Z,88.11
2023-01-10T11:42:23.263Z,88.01
2023-01-10T11:43:23.260Z,87.59
2023-01-10T11:44:23.257Z,86.37
2023-01-10T11:45:23.234Z,84.98
2023-01-10T11:46:23.261Z,84.42
2023-01-10T11:47:23.189Z,84.57
2023-01-10T11:48:47.916Z,82.76
2023-01-10T11:49:23.267Z,82.05
2023-01-10T11:50:23.175Z,81.06
2023-01-10T11:51:23.147Z,80.27
2023-01-10T11:52:23.150Z,80.21
2023-01-10T11:53:23.239Z,81.72
2023-01-10T11:54:23.109Z,83.42
2023-01-10T11:55:23.111Z,84.27
2023-01-10T11:56:23.085Z,85.09
2023-01-10T11:57:23.092Z,84.67
2023-01-10T11:58:23.088Z,84.96
2023-01-10T11:59:23.040Z,85.72
2023-01-10T12:00:23.032Z,85.26
2023-01-10T12:01:23.028Z,85.54
2023-01-10T12:02:23.131Z,86.38
2023-01-10T12:03:22.993Z,86.71
2023-01-10T12:04:22.981Z,87.63
2023-01-10T12:05:23.168Z,88.12
2023-01-10T12:06:22.940Z,88.41
2023-01-10T12:07:22.928Z,88.28
2023-01-10T12:08:22.947Z,88.49
2023-01-10T12:09:22.907Z,88.89
2023-01-10T12:10:22.910Z,88.94
2023-01-10T12:11:22.881Z,88.14
2023-01-10T12:12:22.874Z,88.80
2023-01-10T12:13:22.851Z,88.36
2023-01-10T12:14:22.839Z,89.06
2023-01-10T12:15:22.815Z,89.58
2023-01-10T12:16:22.902Z,89.29
2023-01-10T12:17:22.815Z,88.80
2023-01-10T12:18:22.856Z,88.07
2023-01-10T12:19:22.770Z,87.94
2023-01-10T12:20:22.760Z,87.99
2023-01-10T12:21:22.744Z,88.15
2023-01-10T12:22:22.729Z,88.28
2023-01-10T12:23:22.735Z,88.06
2023-01-10T12:24:22.708Z,88.04
2023-01-10T12:25:22.722Z,88.50
2023-01-10T12:26:22.678Z,87.65
2023-01-10T12:27:22.648Z,86.56
2023-01-10T12:28:22.716Z,85.45
2023-01-10T12:29:22.643Z,83.80
2023-01-10T12:30:22.614Z,82.91
2023-01-10T12:31:22.602Z,82.73
2023-01-10T12:32:22.618Z,82.87
2023-01-10T12:33:22.599Z,83.63
2023-01-10T12:34:22.628Z,84.56
2023-01-10T12:35:22.566Z,85.72
2023-01-10T12:36:22.530Z,86.24
2023-01-10T12:37:22.530Z,86.22
2023-01-10T12:38:22.621Z,86.12
2023-01-10T12:39:22.513Z,85.99
2023-01-10T12:40:22.485Z,86.51
2023-01-10T12:41:22.480Z,86.28
2023-01-10T12:42:22.447Z,86.17
2023-01-10T12:43:22.442Z,86.34